createdAt,value
2023-05-09T00:01:35.409Z,1.02
2023-05-09T00:04:02.768Z,1.10
2023-05-09T00:06:29.935Z,1.05
2023-05-09T00:08:57.110Z,0.97
2023-05-09T00:11:24.300Z,1.00
2023-05-09T00:13:52.054Z,0.90
2023-05-09T00:16:20.654Z,1.00
2023-05-09T00:18:48.268Z,1.23
2023-05-09T00:21:15.735Z,0.80
2023-05-09T00:23:42.913Z,0.85
2023-05-09T00:26:10.667Z,1.05
2023-05-09T00:28:39.309Z,0.77
2023-05-09T00:31:06.839Z,1.15
2023-05-09T00:33:34.085Z,1.07
2023-05-09T00:36:01.591Z,1.00
2023-05-09T00:38:28.805Z,1.10
2023-05-09T00:40:55.918Z,0.93
2023-05-09T00:43:23.159Z,1.30
2023-05-09T00:45:50.820Z,1.00
2023-05-09T00:48:19.558Z,0.88
2023-05-09T00:50:52.689Z,1.15
2023-05-09T00:53:20.774Z,0.80
2023-05-09T00:55:48.314Z,0.77
2023-05-09T00:58:15.972Z,1.00
2023-05-09T01:00:43.518Z,0.85
2023-05-09T01:03:11.298Z,1.38
2023-05-09T01:05:47.606Z,0.80
2023-05-09T01:08:31.271Z,0.90
2023-05-09T01:11:13.054Z,0.90
2023-05-09T01:13:49.395Z,0.70
2023-05-09T01:16:32.827Z,1.20
2023-05-09T01:19:23.303Z,1.10
2023-05-09T01:21:51.233Z,1.10
2023-05-09T01:24:21.344Z,1.33
2023-05-09T01:27:12.986Z,1.00
2023-05-09T01:29:48.458Z,0.98
2023-05-09T01:32:24.350Z,1.00
2023-05-09T01:34:54.444Z,0.98
2023-05-09T01:37:35.710Z,0.90
2023-05-09T01:40:14.716Z,1.10
2023-05-09T01:42:47.658Z,1.00
2023-05-09T01:45:16.268Z,1.00
2023-05-09T01:47:44.115Z,0.93
2023-05-09T01:50:12.766Z,0.80
2023-05-09T01:52:42.533Z,0.70
2023-05-09T01:55:11.735Z,1.13
2023-05-09T01:57:40.461Z,0.98
2023-05-09T02:00:10.230Z,1.00
2023-05-09T02:02:41.088Z,1.07
2023-05-09T02:05:11.289Z,1.10
2023-05-09T02:07:41.415Z,0.80
2023-05-09T02:10:10.189Z,0.77
2023-05-09T02:12:38.494Z,1.10
2023-05-09T02:15:06.794Z,0.90
2023-05-09T02:17:34.258Z,0.90
2023-05-09T02:20:01.621Z,0.70
2023-05-09T02:22:29.037Z,0.82
2023-05-09T02:24:57.107Z,0.88
2023-05-09T02:27:24.830Z,0.80
2023-05-09T02:29:57.558Z,0.80
2023-05-09T02:32:28.888Z,1.00
2023-05-09T02:34:58.936Z,0.98
2023-05-09T02:37:26.924Z,0.90
2023-05-09T02:39:55.005Z,1.40
2023-05-09T02:42:25.405Z,0.90
2023-05-09T02:44:53.850Z,0.90
2023-05-09T02:47:21.607Z,1.02
2023-05-09T02:49:48.833Z,0.70
2023-05-09T02:52:16.612Z,0.80
2023-05-09T02:54:43.883Z,0.93
2023-05-09T02:57:11.144Z,0.90
2023-05-09T02:59:38.381Z,0.90
2023-05-09T03:02:05.518Z,1.20
2023-05-09T03:04:32.755Z,0.90
2023-05-09T03:07:00.319Z,1.20
2023-05-09T03:09:31.801Z,0.80
2023-05-09T03:11:59.069Z,0.65
2023-05-09T03:14:26.320Z,0.70
2023-05-09T03:16:55.365Z,1.17
2023-05-09T03:19:30.511Z,0.95
2023-05-09T03:21:57.802Z,1.00
2023-05-09T03:24:26.700Z,1.02
2023-05-09T03:26:54.608Z,1.00
2023-05-09T03:29:22.523Z,0.90
2023-05-09T03:31:50.068Z,0.63
2023-05-09T03:34:17.275Z,1.38
2023-05-09T03:36:45.305Z,1.20
2023-05-09T03:39:14.803Z,2.15
2023-05-09T03:41:45.336Z,1.43
2023-05-09T03:44:13.175Z,1.40
2023-05-09T03:46:40.633Z,1.48
2023-05-09T03:49:08.246Z,0.98
2023-05-09T03:51:36.762Z,1.13
2023-05-09T03:54:06.698Z,1.10
2023-05-09T03:56:35.018Z,1.00
2023-05-09T03:59:02.200Z,1.17
2023-05-09T04:01:30.664Z,1.02
2023-05-09T04:04:00.390Z,1.10
2023-05-09T04:06:30.142Z,1.00
2023-05-09T04:08:58.316Z,1.13
2023-05-09T04:11:25.757Z,1.30
2023-05-09T04:13:54.752Z,1.17
2023-05-09T04:16:31.798Z,1.00
2023-05-09T04:18:59.568Z,0.93
2023-05-09T04:21:26.799Z,0.88
2023-05-09T04:23:56.961Z,1.30
2023-05-09T04:26:31.537Z,1.20
2023-05-09T04:28:59.725Z,0.90
2023-05-09T04:31:27.123Z,1.23
2023-05-09T04:33:54.469Z,0.95
2023-05-09T04:36:23.099Z,1.10
2023-05-09T04:38:50.465Z,1.02
2023-05-09T04:41:23.041Z,1.13
2023-05-09T04:43:50.723Z,1.20
2023-05-09T04:46:18.228Z,1.20
2023-05-09T04:48:45.463Z,1.10
2023-05-09T04:51:12.554Z,1.00
2023-05-09T04:53:39.710Z,1.30
2023-05-09T04:56:07.300Z,1.20
2023-05-09T04:58:38.529Z,1.23
2023-05-09T05:01:09.750Z,1.38
2023-05-09T05:03:37.223Z,1.30
2023-05-09T05:06:05.466Z,1.80
2023-05-09T05:08:33.144Z,1.53
2023-05-09T05:11:00.461Z,2.05
2023-05-09T05:13:28.372Z,1.40
2023-05-09T05:15:59.065Z,2.50
2023-05-09T05:18:26.428Z,1.40
2023-05-09T05:20:54.455Z,1.33
2023-05-09T05:23:22.035Z,1.80
2023-05-09T05:25:52.733Z,2.10
2023-05-09T05:28:20.227Z,1.50
2023-05-09T05:30:47.851Z,1.60
2023-05-09T05:33:15.088Z,1.53
2023-05-09T05:35:42.247Z,1.67
2023-05-09T05:38:09.448Z,1.77
2023-05-09T05:40:37.151Z,1.67
2023-05-09T05:43:06.275Z,1.48
2023-05-09T05:45:36.025Z,1.80
2023-05-09T05:48:05.742Z,1.52
2023-05-09T05:50:33.512Z,1.30
2023-05-09T05:53:01.062Z,1.60
2023-05-09T05:55:28.365Z,2.00
2023-05-09T05:57:55.634Z,1.80
2023-05-09T06:00:22.974Z,1.77
2023-05-09T06:02:57.173Z,2.30
2023-05-09T06:05:34.029Z,1.75
2023-05-09T06:08:01.354Z,1.63
2023-05-09T06:10:28.661Z,1.60
2023-05-09T06:12:56.092Z,2.20
2023-05-09T06:15:23.969Z,2.08
2023-05-09T06:17:51.540Z,1.90
2023-05-09T06:20:18.775Z,1.55
2023-05-09T06:22:46.431Z,2.13
2023-05-09T06:25:13.837Z,2.00
2023-05-09T06:27:42.336Z,2.30
2023-05-09T06:30:23.971Z,2.25
2023-05-09T06:32:53.917Z,2.00
2023-05-09T06:35:21.220Z,2.07
2023-05-09T06:37:49.176Z,2.25
2023-05-09T06:40:17.095Z,2.05
2023-05-09T06:42:45.078Z,2.35
2023-05-09T06:45:12.699Z,2.42
2023-05-09T06:47:40.115Z,2.30
2023-05-09T06:50:08.166Z,2.40
2023-05-09T06:52:35.978Z,2.17
2023-05-09T06:55:03.847Z,2.67
2023-05-09T06:57:31.636Z,2.85
2023-05-09T06:59:58.800Z,1.93
2023-05-09T07:02:26.070Z,2.20
2023-05-09T07:04:53.318Z,2.42
2023-05-09T07:07:20.682Z,2.53
2023-05-09T07:09:50.732Z,2.30
2023-05-09T07:12:20.146Z,2.40
2023-05-09T07:14:47.352Z,2.00
2023-05-09T07:17:23.052Z,2.05
2023-05-09T07:19:51.986Z,2.25
2023-05-09T07:22:19.420Z,2.30
2023-05-09T07:24:46.796Z,2.10
2023-05-09T07:27:14.041Z,2.28
2023-05-09T07:29:41.350Z,2.25
2023-05-09T07:32:08.804Z,2.63
2023-05-09T07:34:36.629Z,2.78
2023-05-09T07:37:03.828Z,2.27
2023-05-09T07:39:31.040Z,2.72
2023-05-09T07:41:58.239Z,2.42
2023-05-09T07:44:25.801Z,2.00
2023-05-09T07:46:55.335Z,2.13
2023-05-09T07:49:22.579Z,3.10
2023-05-09T07:51:49.755Z,2.20
2023-05-09T07:54:17.224Z,2.58
2023-05-09T07:56:44.364Z,2.25
2023-05-09T07:59:12.322Z,2.83
2023-05-09T08:01:39.554Z,2.30
2023-05-09T08:04:09.165Z,2.53
2023-05-09T08:06:36.835Z,2.75
2023-05-09T08:09:04.858Z,2.78
2023-05-09T08:11:36.016Z,2.70
2023-05-09T08:14:03.396Z,2.90
2023-05-09T08:16:30.824Z,2.92
2023-05-09T08:18:58.186Z,3.08
2023-05-09T08:21:25.649Z,2.47
2023-05-09T08:23:53.202Z,2.85
2023-05-09T08:26:22.598Z,2.60
2023-05-09T08:28:49.780Z,2.60
2023-05-09T08:31:17.004Z,2.75
2023-05-09T08:33:44.249Z,2.63
2023-05-09T08:36:11.496Z,2.40
2023-05-09T08:38:40.521Z,2.40
2023-05-09T08:41:07.774Z,2.95
2023-05-09T08:43:35.524Z,2.72
2023-05-09T08:46:10.650Z,2.92
2023-05-09T08:48:38.941Z,2.17
2023-05-09T08:51:07.069Z,2.70
2023-05-09T08:53:34.668Z,2.72
2023-05-09T08:56:04.027Z,2.80
2023-05-09T08:58:32.103Z,2.60
2023-05-09T09:01:00.207Z,2.65
2023-05-09T09:03:27.715Z,2.83
2023-05-09T09:05:56.316Z,2.70
2023-05-09T09:08:24.473Z,2.60
2023-05-09T09:10:52.011Z,2.40
2023-05-09T09:13:20.586Z,2.20
2023-05-09T09:15:51.545Z,2.17
2023-05-09T09:18:23.587Z,2.08
2023-05-09T09:20:58.361Z,1.92
2023-05-09T09:23:27.212Z,1.38
2023-05-09T09:26:04.481Z,1.63
2023-05-09T09:28:32.613Z,1.53
2023-05-09T09:30:59.763Z,1.50
2023-05-09T09:33:28.702Z,1.55
2023-05-09T09:35:57.125Z,1.05
2023-05-09T09:38:24.871Z,1.55
2023-05-09T09:40:52.031Z,1.20
2023-05-09T09:43:19.389Z,1.20
2023-05-09T09:45:53.338Z,1.15
2023-05-09T09:48:30.791Z,1.23
2023-05-09T09:51:02.172Z,1.13
2023-05-09T09:53:30.675Z,1.10
2023-05-09T09:55:58.678Z,0.70
2023-05-09T09:58:26.542Z,0.70
2023-05-09T10:01:16.881Z,0.60
2023-05-09T10:03:46.218Z,0.68
2023-05-09T10:06:16.026Z,0.70
2023-05-09T10:08:46.844Z,0.90
2023-05-09T10:11:14.449Z,1.00
2023-05-09T10:13:42.548Z,0.80
2023-05-09T10:16:10.554Z,0.88
2023-05-09T10:18:39.716Z,0.80
2023-05-09T10:21:09.581Z,0.80
2023-05-09T10:23:38.444Z,0.60
2023-05-09T10:26:17.817Z,0.70
2023-05-09T10:28:48.199Z,0.73
2023-05-09T10:31:22.277Z,0.50
2023-05-09T10:33:51.037Z,0.80
2023-05-09T10:36:26.223Z,0.60
2023-05-09T10:38:54.990Z,0.50
2023-05-09T10:41:23.707Z,0.50
2023-05-09T10:43:51.292Z,0.40
2023-05-09T10:46:18.750Z,0.80
2023-05-09T10:48:48.036Z,0.60
2023-05-09T10:51:17.600Z,0.77
2023-05-09T10:53:47.047Z,0.50
2023-05-09T10:56:26.431Z,0.60
2023-05-09T10:58:54.730Z,0.60
2023-05-09T11:01:34.941Z,0.63
2023-05-09T11:04:08.693Z,0.57
2023-05-09T11:06:42.044Z,0.60
2023-05-09T11:09:35.797Z,0.60
2023-05-09T11:12:05.983Z,0.95
2023-05-09T11:14:35.994Z,0.60
2023-05-09T11:17:05.183Z,0.63
2023-05-09T11:19:36.918Z,0.52
2023-05-09T11:22:16.518Z,0.50
2023-05-09T11:25:07.454Z,0.65
2023-05-09T11:27:52.163Z,0.60
2023-05-09T11:30:20.724Z,0.60
2023-05-09T11:32:52.148Z,0.80
2023-05-09T11:35:21.632Z,0.60
2023-05-09T11:38:06.638Z,0.70
2023-05-09T11:40:37.456Z,0.82
2023-05-09T11:43:07.064Z,0.63
2023-05-09T11:45:34.817Z,0.60
2023-05-09T11:48:09.028Z,0.80
2023-05-09T11:50:36.231Z,0.60
2023-05-09T11:53:03.339Z,0.60
2023-05-09T11:55:31.572Z,0.57
2023-05-09T11:57:59.025Z,0.63
2023-05-09T12:00:26.538Z,0.60
2023-05-09T12:02:54.223Z,0.50
2023-05-09T12:05:22.856Z,0.60
2023-05-09T12:07:50.975Z,0.60
2023-05-09T12:10:25.531Z,0.73
2023-05-09T12:12:55.693Z,0.90
2023-05-09T12:15:23.149Z,0.52
2023-05-09T12:18:08.155Z,0.60
2023-05-09T12:20:41.494Z,0.40
2023-05-09T12:23:11.087Z,0.40
2023-05-09T12:25:38.623Z,0.60
2023-05-09T12:28:06.104Z,0.60
2023-05-09T12:30:33.548Z,0.60
2023-05-09T12:33:01.006Z,0.80
2023-05-09T12:35:28.282Z,0.70
2023-05-09T12:37:57.860Z,0.50
2023-05-09T12:40:25.477Z,0.55
2023-05-09T12:42:54.406Z,0.68
2023-05-09T12:45:21.661Z,0.50
2023-05-09T12:47:52.367Z,0.50
2023-05-09T12:50:19.770Z,0.50
2023-05-09T12:53:01.865Z,0.50
2023-05-09T12:55:31.824Z,0.55
2023-05-09T12:58:01.508Z,0.50
2023-05-09T13:00:29.210Z,0.52
2023-05-09T13:02:57.135Z,0.60
2023-05-09T13:05:24.690Z,0.40
2023-05-09T13:07:56.225Z,0.50
2023-05-09T13:10:26.190Z,0.47
2023-05-09T13:12:53.766Z,0.60
2023-05-09T13:15:26.785Z,0.60
2023-05-09T13:17:54.386Z,0.65
2023-05-09T13:20:21.638Z,0.50
2023-05-09T13:22:48.983Z,0.60
2023-05-09T13:25:16.926Z,0.57
2023-05-09T13:27:44.150Z,0.53
2023-05-09T13:30:12.724Z,0.70
2023-05-09T13:32:40.236Z,0.70
2023-05-09T13:35:08.052Z,0.55
2023-05-09T13:37:35.707Z,0.63
2023-05-09T13:40:04.315Z,0.47
2023-05-09T13:42:33.402Z,0.47
2023-05-09T13:45:00.939Z,0.50
2023-05-09T13:47:28.378Z,0.60
2023-05-09T13:49:55.571Z,0.47
2023-05-09T13:52:23.223Z,0.40
2023-05-09T13:54:50.441Z,0.75
2023-05-09T13:57:17.706Z,0.40
2023-05-09T13:59:44.809Z,0.30
2023-05-09T14:02:12.893Z,0.43
2023-05-09T14:04:41.619Z,0.30
2023-05-09T14:07:11.199Z,0.45
2023-05-09T14:09:40.221Z,0.40
2023-05-09T14:12:07.951Z,0.40
2023-05-09T14:14:35.311Z,0.50
2023-05-09T14:17:02.867Z,0.30
2023-05-09T14:19:33.023Z,0.47
2023-05-09T14:22:00.269Z,0.60
2023-05-09T14:24:30.808Z,0.40
2023-05-09T14:26:58.010Z,0.52
2023-05-09T14:29:25.227Z,0.40
2023-05-09T14:31:52.535Z,0.40
2023-05-09T14:34:19.798Z,0.50
2023-05-09T14:36:47.021Z,0.50
2023-05-09T14:39:14.261Z,0.50
2023-05-09T14:41:41.545Z,0.50
2023-05-09T14:44:08.699Z,0.40
2023-05-09T14:46:37.001Z,0.40
2023-05-09T14:49:04.368Z,0.40
2023-05-09T14:51:33.302Z,0.50
2023-05-09T14:54:03.118Z,0.33
2023-05-09T14:56:31.593Z,0.50
2023-05-09T14:58:58.733Z,0.40
2023-05-09T15:01:26.146Z,0.52
2023-05-09T15:03:53.459Z,0.50
2023-05-09T15:06:20.790Z,0.40
2023-05-09T15:08:48.000Z,0.40
2023-05-09T15:11:15.276Z,0.40
2023-05-09T15:13:42.419Z,0.40
2023-05-09T15:16:10.120Z,0.30
2023-05-09T15:18:37.365Z,0.40
2023-05-09T15:21:04.890Z,0.50
2023-05-09T15:23:32.186Z,0.75
2023-05-09T15:25:59.396Z,0.70
2023-05-09T15:28:26.570Z,0.70
2023-05-09T15:30:53.908Z,0.60
2023-05-09T15:33:21.192Z,0.50
2023-05-09T15:35:50.149Z,0.47
2023-05-09T15:38:17.426Z,0.80
2023-05-09T15:40:44.641Z,0.50
2023-05-09T15:43:12.982Z,0.77
2023-05-09T15:45:45.494Z,0.50
2023-05-09T15:48:14.261Z,0.50
2023-05-09T15:50:44.986Z,0.50
2023-05-09T15:53:12.184Z,0.50
2023-05-09T15:55:39.361Z,0.40
2023-05-09T15:58:07.489Z,0.70
2023-05-09T16:00:34.607Z,0.52
2023-05-09T16:03:01.946Z,0.50
2023-05-09T16:05:29.254Z,0.50
2023-05-09T16:07:56.499Z,0.50
2023-05-09T16:10:23.643Z,0.50
2023-05-09T16:12:51.175Z,0.63
2023-05-09T16:15:18.426Z,0.43
2023-05-09T16:17:45.610Z,0.40
2023-05-09T16:20:14.271Z,0.50
2023-05-09T16:22:42.163Z,0.40
2023-05-09T16:25:09.632Z,0.60
2023-05-09T16:27:36.959Z,0.70
2023-05-09T16:30:05.752Z,0.60
2023-05-09T16:32:32.941Z,0.73
2023-05-09T16:35:00.141Z,0.50
2023-05-09T16:37:29.833Z,0.50
2023-05-09T16:39:57.868Z,0.60
2023-05-09T16:42:25.519Z,0.50
2023-05-09T16:44:52.697Z,0.47
2023-05-09T16:47:19.920Z,0.40
2023-05-09T16:49:47.051Z,0.60
2023-05-09T16:52:14.343Z,0.50
2023-05-09T16:54:41.551Z,0.40
2023-05-09T16:57:08.864Z,0.40
2023-05-09T16:59:37.217Z,0.40
2023-05-09T17:02:04.708Z,0.50
2023-05-09T17:04:32.074Z,0.40
2023-05-09T17:06:59.314Z,0.50
2023-05-09T17:09:26.611Z,0.47
2023-05-09T17:11:53.805Z,0.50
2023-05-09T17:14:20.982Z,0.50
2023-05-09T17:16:48.234Z,0.50
2023-05-09T17:19:16.515Z,0.52
2023-05-09T17:21:44.341Z,0.57
2023-05-09T17:24:11.501Z,0.80
2023-05-09T17:26:39.133Z,0.55
2023-05-09T17:29:06.297Z,0.60
2023-05-09T17:31:33.533Z,0.60
2023-05-09T17:34:01.454Z,0.67
2023-05-09T17:36:28.762Z,0.68
2023-05-09T17:38:56.138Z,0.50
2023-05-09T17:41:23.354Z,0.65
2023-05-09T17:43:53.882Z,0.75
2023-05-09T17:46:21.153Z,0.87
2023-05-09T17:48:48.619Z,0.80
2023-05-09T17:51:16.967Z,1.00
2023-05-09T17:53:44.206Z,1.10
2023-05-09T17:56:11.408Z,0.60
2023-05-09T17:58:38.609Z,0.60
2023-05-09T18:01:05.930Z,1.08
2023-05-09T18:03:33.274Z,0.95
2023-05-09T18:06:01.657Z,1.00
2023-05-09T18:08:29.807Z,0.70
2023-05-09T18:10:57.809Z,0.70
2023-05-09T18:13:25.117Z,0.63
2023-05-09T18:15:54.899Z,0.60
2023-05-09T18:18:23.046Z,0.70
2023-05-09T18:20:50.397Z,0.70
2023-05-09T18:23:17.548Z,0.83
2023-05-09T18:25:44.766Z,0.90
2023-05-09T18:28:11.952Z,0.88
2023-05-09T18:30:39.494Z,0.80
2023-05-09T18:33:07.175Z,0.80
2023-05-09T18:35:34.471Z,0.80
2023-05-09T18:38:01.959Z,0.93
2023-05-09T18:40:29.285Z,0.88
2023-05-09T18:42:56.432Z,0.80
2023-05-09T18:45:23.775Z,0.93
2023-05-09T18:47:51.132Z,1.20
2023-05-09T18:50:19.114Z,1.05
2023-05-09T18:52:46.414Z,1.23
2023-05-09T18:55:14.841Z,0.80
2023-05-09T18:57:42.081Z,1.17
2023-05-09T19:00:09.673Z,1.10
2023-05-09T19:02:36.942Z,1.33
2023-05-09T19:05:08.580Z,1.35
2023-05-09T19:07:35.811Z,1.65
2023-05-09T19:10:08.219Z,1.80
2023-05-09T19:12:35.477Z,1.30
2023-05-09T19:15:03.471Z,1.60
2023-05-09T19:17:30.724Z,1.45
2023-05-09T19:19:58.009Z,1.80
2023-05-09T19:22:25.306Z,1.35
2023-05-09T19:24:52.511Z,1.70
2023-05-09T19:27:19.705Z,1.63
2023-05-09T19:29:49.263Z,1.98
2023-05-09T19:32:18.048Z,1.50
2023-05-09T19:34:45.223Z,1.63
2023-05-09T19:37:12.449Z,1.60
2023-05-09T19:39:39.586Z,1.73
2023-05-09T19:42:08.008Z,1.83
2023-05-09T19:44:35.306Z,2.35
2023-05-09T19:47:05.265Z,4.57
2023-05-09T19:49:32.763Z,3.17
2023-05-09T19:51:59.919Z,2.50
2023-05-09T19:54:27.241Z,1.98
2023-05-09T19:56:54.570Z,1.55
2023-05-09T19:59:21.756Z,1.48
2023-05-09T20:01:49.110Z,1.60
2023-05-09T20:04:16.558Z,1.20
2023-05-09T20:06:43.891Z,1.60
2023-05-09T20:09:11.304Z,1.30
2023-05-09T20:11:38.457Z,1.27
2023-05-09T20:14:05.635Z,0.87
2023-05-09T20:16:33.232Z,1.00
2023-05-09T20:19:00.689Z,0.80
2023-05-09T20:21:27.916Z,0.70
2023-05-09T20:23:55.067Z,1.30
2023-05-09T20:26:24.519Z,0.90
2023-05-09T20:28:54.519Z,0.70
2023-05-09T20:31:21.738Z,1.08
2023-05-09T20:33:48.984Z,0.75
2023-05-09T20:36:16.173Z,0.98
2023-05-09T20:38:43.532Z,0.87
2023-05-09T20:41:10.711Z,0.70
2023-05-09T20:43:38.366Z,0.68
2023-05-09T20:46:05.557Z,0.68
2023-05-09T20:48:33.189Z,0.90
2023-05-09T20:51:00.584Z,0.90
2023-05-09T20:53:31.243Z,0.63
2023-05-09T20:55:59.838Z,0.60
2023-05-09T20:58:32.277Z,0.50
2023-05-09T21:00:59.612Z,0.77
2023-05-09T21:03:26.979Z,0.60
2023-05-09T21:05:54.326Z,0.60
2023-05-09T21:08:21.535Z,0.55
2023-05-09T21:10:51.709Z,1.00
2023-05-09T21:13:18.971Z,0.90
2023-05-09T21:15:50.108Z,0.50
2023-05-09T21:18:17.509Z,0.60
2023-05-09T21:20:45.309Z,0.80
2023-05-09T21:23:12.473Z,0.75
2023-05-09T21:25:39.793Z,0.95
2023-05-09T21:28:06.963Z,0.80
2023-05-09T21:30:34.114Z,0.80
2023-05-09T21:33:01.940Z,0.73
2023-05-09T21:35:29.206Z,1.00
2023-05-09T21:37:56.414Z,0.73
2023-05-09T21:40:23.747Z,1.00
2023-05-09T21:42:50.875Z,1.00
2023-05-09T21:45:18.480Z,1.20
2023-05-09T21:47:45.945Z,1.23
2023-05-09T21:50:13.927Z,1.20
2023-05-09T21:52:41.327Z,1.27
2023-05-09T21:55:09.152Z,0.85
2023-05-09T21:57:36.332Z,1.25
2023-05-09T22:00:05.634Z,1.13
2023-05-09T22:02:42.562Z,1.23
2023-05-09T22:05:10.553Z,1.37
2023-05-09T22:07:37.705Z,1.25
2023-05-09T22:10:05.610Z,1.20
2023-05-09T22:12:32.964Z,0.98
2023-05-09T22:15:00.172Z,1.50
2023-05-09T22:17:27.378Z,1.50
2023-05-09T22:19:54.589Z,1.05
2023-05-09T22:22:21.839Z,1.67
2023-05-09T22:24:49.800Z,1.40
2023-05-09T22:27:16.978Z,1.23
2023-05-09T22:29:44.230Z,1.67
2023-05-09T22:32:11.634Z,1.52
2023-05-09T22:34:38.934Z,1.63
2023-05-09T22:37:06.238Z,1.90
2023-05-09T22:39:33.431Z,1.88
2023-05-09T22:42:02.493Z,1.90
2023-05-09T22:44:29.735Z,1.90
2023-05-09T22:46:56.951Z,1.80
2023-05-09T22:49:24.289Z,1.95
2023-05-09T22:51:51.457Z,2.10
2023-05-09T22:54:21.692Z,1.93
2023-05-09T22:56:49.039Z,2.60
2023-05-09T22:59:16.329Z,2.90
2023-05-09T23:01:43.697Z,2.85
2023-05-09T23:04:10.957Z,3.88
2023-05-09T23:06:38.139Z,2.97
2023-05-09T23:09:05.328Z,3.40
2023-05-09T23:11:32.499Z,2.78
2023-05-09T23:13:59.828Z,2.47
2023-05-09T23:16:27.001Z,3.03
2023-05-09T23:18:54.230Z,3.20
2023-05-09T23:21:21.463Z,3.40
2023-05-09T23:23:48.691Z,3.47
2023-05-09T23:26:15.840Z,3.53
2023-05-09T23:28:43.057Z,2.92
2023-05-09T23:31:10.460Z,3.97
2023-05-09T23:33:37.691Z,4.10
2023-05-09T23:36:05.301Z,3.55
2023-05-09T23:38:32.463Z,3.40
2023-05-09T23:41:01.077Z,3.60
2023-05-09T23:43:28.884Z,3.40
2023-05-09T23:45:59.376Z,3.53
2023-05-09T23:48:26.869Z,3.50
2023-05-09T23:50:54.027Z,3.08
2023-05-09T23:53:21.418Z,3.17
2023-05-09T23:55:48.737Z,3.90
2023-05-09T23:58:16.486Z,4.05
